Terminal Aerodrome Forecast
Issued by NWS Grand Rapids, MI

Home | Current Version | Previous Version | Text Only | Print | Product List | Glossary On
Versions: 1 2 3 4 5 6 7 8 9 10 11 12 13 14 15 16
610
FTUS43 KGRR 131720
TAFGRR
TAF
KGRR 131720Z 1318/1418 32013G20KT P6SM -SN BKN025
     FM132100 31008KT P6SM BKN050
     FM140200 15003KT P6SM SKC
     FM141500 14010KT P6SM SCT150=

USA.gov is the U.S. government's official web portal to all federal, state and local government web resources and services.